METAR Data
IDs: Format: Raw Decoded Include TAF

Data at: 0820 UTC 07 Apr 2020

Region: TOP
KATL 070752Z 27005KT 10SM FEW050 SCT200 BKN250 19/12 A3005 RMK AO2 SLP168 T01890122

KBOS 070754Z 29008KT 10SM SCT110 OVC250 09/M08 A2988 RMK AO2 SLP118 T00891083

KBWI 070754Z 00000KT 10SM BKN110 BKN250 11/01 A2996 RMK AO2 SLP145 T01060006

KCLE 070751Z 17003KT 10SM FEW060 BKN085 BKN110 BKN250 08/03 A2996 RMK AO2 SLP147 T00830028

KCLT 070752Z 00000KT 10SM FEW100 BKN250 14/11 A3000 RMK AO2 SLP151 T01440106

KCVG 070752Z 19007KT 10SM CLR 14/10 A2994 RMK AO2 SLP133 T01390100

KDCA 070752Z 18005KT 10SM FEW070 OVC110 13/08 A2998 RMK AO2 RAB11E21 SLP149 P0000 T01330083

KDEN 070753Z 22007KT 10SM CLR 08/M07 A2991 RMK AO2 SLP076 T00781067

KDFW 070753Z 19006KT 4SM BR BKN029 BKN110 OVC160 18/18 A2992 RMK AO2 SLP125 T01830183

KDTW 070753Z 00000KT 10SM SCT030 BKN045 OVC070 08/M04 A2994 RMK AO2 RAE12 SLP139 P0000 T00831039

KEWR 070751Z 31007KT 10SM BKN120 12/M06 A2997 RMK AO2 SLP149 T01171061

KFLL 070753Z 12008KT 10SM FEW024 SCT030 BKN070 24/21 A3000 RMK AO2 SLP160 T02440206

KIAD 070752Z 19006KT 10SM BKN100 BKN120 12/07 A2996 RMK AO2 SLP144 T01170067

KIAH 070753Z 15005KT 1/4SM FG VV002 23/22 A2998 RMK AO2 SLP151 T02280222

KJFK 070751Z 32006KT 10SM BKN120 11/M05 A2998 RMK AO2 SLP151 T01061050

KLAS 070756Z 34003KT 10SM FEW080 OVC100 13/07 A2999 RMK AO2 SLP146 TOPS OF MTNS OBSCURED DSNT NW T01330067 402000128 $

KLAX 070753Z 35003KT 10SM FEW018 SCT045 BKN070 14/08 A3004 RMK AO2 SLP171 T01390083 401670133

KLGA 070751Z 32007KT 10SM BKN120 BKN250 12/M03 A2996 RMK AO2 SLP146 T01221033

KMCO 070753Z 10003KT 10SM FEW250 18/16 A3007 RMK AO2 SLP179 T01780161

KMDW 070753Z 00000KT 7SM FEW035 BKN055 OVC070 14/14 A2984 RMK AO2 LTG DSNT SE RAE29 SLP101 P0003 T01440139 $

KMEM 070754Z 20006KT 10SM SCT090 18/15 A2999 RMK AO2 SLP150 T01780150

KMIA 070753Z 10006KT 10SM SCT020 BKN060 24/21 A3002 RMK AO2 SLP165 T02440211

KMSP 070806Z 12006KT 5SM BR BKN011 OVC110 10/08 A2974 RMK AO2 T01000078

KORD 070751Z 00000KT 10SM SCT045 BKN055 BKN070 11/09 A2982 RMK AO2 RAE20 SLP099 P0002 T01110089

KPDX 070753Z 30006KT 10SM BKN050 09/01 A3013 RMK AO2 SLP201 T00940011 401780044

KPHL 070754Z 19004KT 10SM FEW100 SCT260 07/04 A2999 RMK AO2 SLP153 T00720044

KPHX 070751Z 13005KT 10SM BKN250 18/01 A3000 RMK AO2 SLP145 T01830006

KPIT 070751Z 00000KT 10SM SCT060 OVC100 11/01 A2995 RMK AO2 SLP146 T01110011

KSAN 070758Z 27004KT 3SM RA BR SCT004 BKN012 OVC020 14/14 A3005 RMK AO2 VIS 1V3 P0002 T01440144

KSEA 070753Z 23004KT 10SM CLR 07/02 A3009 RMK AO2 SLP195 T00720022 401560039

KSFO 070756Z 20003KT 10SM BKN019 OVC038 07/06 A3005 RMK AO2 SLP177 T00720056 401060067

KSLC 070754Z 18007KT 10SM FEW070 SCT090 11/00 A2999 RMK AO2 SLP125 T01110000

KSTL 070751Z 16004KT 10SM BKN060 BKN250 19/12 A2989 RMK AO2 SLP116 T01890122

KTPA 070753Z 02003KT 10SM FEW060 19/16 A3008 RMK AO2 SLP184 T01940156